Amberjack — V7IT8 — position and weather

sailwx.info

Track history (hours):
 
Tides and Currents Weather Stations Pressure Air Temp Water Temp Dewpoint Dewpoint Depression Visibility Wind Speed Wind Dir Waves Ship Positions

Amberjack

Last reported at 2018-May-19 04:27 UTC. Time now 2018-May-23 14:53 UTC.
Position N 20°01' E 067°11'.

Length 230 m; draft 15.1 m.

Type: Tanker. MMSI: 538002451.

Date/timePositionNaut miles runAvg speedWind from/ knotsBaromVisibWave heightAir tempDewpointWater temp
2018-May-19 04:27N 20°01' E 067°11'511.7
2018-May-19 04:00N 19°57' E 067°15'611.8
2018-May-19 03:30N 19°53' E 067°19'612.0
2018-May-19 03:00N 19°48' E 067°23'1811.9
2018-May-19 01:30N 19°35' E 067°36'611.9
2018-May-19 00:59N 19°31' E 067°41'612.0
2018-May-19 00:27N 19°26' E 067°45'5811.9
2018-May-18 19:37N 18°44' E 068°27'2512.1
2018-May-18 17:35N 18°26' E 068°44'112.2
2018-May-18 17:30N 18°25' E 068°45'1312.0
2018-May-18 16:25N 18°15' E 068°55'712.1
2018-May-18 15:48N 18°10' E 068°60'1912.5
2018-May-18 14:17N 17°56' E 069°13'2112.5
2018-May-18 12:38N 17°41' E 069°29'  
2018-May-10 05:43N 01°22' E 103°18'514.3
2018-May-10 05:24N 01°18' E 103°21'614.6
2018-May-10 04:59N 01°14' E 103°25'713.9
2018-May-10 04:30N 01°13' E 103°32'612.8
2018-May-10 04:00N 01°11' E 103°38'611.9
2018-May-10 03:31N 01°09' E 103°43'610.7
2018-May-10 03:00N 01°11' E 103°48'4 8.8
2018-May-10 02:31N 01°13' E 103°52'611.4
2018-May-10 02:00N 01°15' E 103°58'611.3
2018-May-10 01:30N 01°16' E 104°03'612.1
2018-May-10 00:59N 01°17' E 104°09'611.6
2018-May-10 00:28N 01°18' E 104°15'611.5
2018-May-09 23:57N 01°20' E 104°21'511.8
2018-May-09 23:29N 01°23' E 104°25'612.0
2018-May-09 22:59N 01°28' E 104°29'  
Track history (hours):
 
Tides and Currents Weather Stations Pressure Air Temp Water Temp Dewpoint Dewpoint Depression Visibility Wind Speed Wind Dir Waves Ship Positions

Amberjack

Last reported at 2018-May-19 04:27 UTC. Time now 2018-May-23 14:53 UTC.
Position N 20°01' E 067°11'.

Length 230 m; draft 15.1 m.

Type: Tanker. MMSI: 538002451.

Date/timePositionNaut miles runAvg speedWind from/ knotsBaromVisibWave heightAir tempDewpointWater temp
2018-May-19 04:27N 20°01' E 067°11'511.7
2018-May-19 04:00N 19°57' E 067°15'611.8
2018-May-19 03:30N 19°53' E 067°19'612.0
2018-May-19 03:00N 19°48' E 067°23'1811.9
2018-May-19 01:30N 19°35' E 067°36'611.9
2018-May-19 00:59N 19°31' E 067°41'612.0
2018-May-19 00:27N 19°26' E 067°45'5811.9
2018-May-18 19:37N 18°44' E 068°27'2512.1
2018-May-18 17:35N 18°26' E 068°44'112.2
2018-May-18 17:30N 18°25' E 068°45'1312.0
2018-May-18 16:25N 18°15' E 068°55'712.1
2018-May-18 15:48N 18°10' E 068°60'1912.5
2018-May-18 14:17N 17°56' E 069°13'2112.5
2018-May-18 12:38N 17°41' E 069°29'  
2018-May-10 05:43N 01°22' E 103°18'514.3
2018-May-10 05:24N 01°18' E 103°21'614.6
2018-May-10 04:59N 01°14' E 103°25'713.9
2018-May-10 04:30N 01°13' E 103°32'612.8
2018-May-10 04:00N 01°11' E 103°38'611.9
2018-May-10 03:31N 01°09' E 103°43'610.7
2018-May-10 03:00N 01°11' E 103°48'4 8.8
2018-May-10 02:31N 01°13' E 103°52'611.4
2018-May-10 02:00N 01°15' E 103°58'611.3
2018-May-10 01:30N 01°16' E 104°03'612.1
2018-May-10 00:59N 01°17' E 104°09'611.6
2018-May-10 00:28N 01°18' E 104°15'611.5
2018-May-09 23:57N 01°20' E 104°21'511.8
2018-May-09 23:29N 01°23' E 104°25'612.0
2018-May-09 22:59N 01°28' E 104°29'  

Dump ship's entire track history